Terminal Aerodrome Forecast
Issued by NWS

Home | Current Version | Previous Version | Text Only | Print | Product List | Glossary On
Versions: 1 2 3 4 5 6 7 8 9 10 11 12 13 14
000
FTAK31 PAJN 290533
TAFAWG
TAF
PAWG 290533Z 2906/3006 11013G19KT P6SM -SHRA FEW015 BKN040 OVC060
     FM291200 13009KT 6SM -SHRA BR SCT010 BKN030 OVC050
     FM292000 VRB05KT P6SM -SHRA BKN040 OVC060
     FM300300 VRB04KT P6SM VCSH BKN050 OVC070
      AMD LTD TO CLD VIS AND WIND 2906/2915=

USA.gov is the U.S. government's official web portal to all federal, state and local government web resources and services.